Time;durP1;ratioP1;P1;durP2;ratioP2;P2;SDS_P1;SDS_P2;PMS_P1;PMS_P2;Temp;Humidity;BMP_temperature;BMP_pressure;BME280_temperature;BME280_humidity;BME280_pressure;Samples;Min_cycle;Max_cycle;Signal;HPM_P1;HPM_P2
2024/03/16 00:02:55;;;;;;;12.30;9.70;;;;;;;13.62;100.00;99783.80;178714;1256;46032;-81
2024/03/16 00:06:58;;;;;;;13.70;12.30;;;;;;;13.66;100.00;99782.35;178967;1255;44144;-81
2024/03/16 00:11:01;;;;;;;14.80;10.40;;;;;;;13.67;100.00;99784.50;178079;1256;46544;-81
2024/03/16 00:15:04;;;;;;;18.50;11.20;;;;;;;13.65;100.00;99784.89;178628;1256;58512;-82
2024/03/16 00:19:07;;;;;;;13.30;10.60;;;;;;;13.62;100.00;99785.81;178898;1254;46007;-82
2024/03/16 00:23:10;;;;;;;15.90;11.70;;;;;;;13.57;100.00;99787.02;178503;1257;46144;-82
2024/03/16 00:27:13;;;;;;;17.50;12.60;;;;;;;13.52;100.00;99783.30;178526;1256;46099;-82
2024/03/16 00:31:18;;;;;;;11.30;9.70;;;;;;;13.49;100.00;99778.52;179128;1256;46087;-82
2024/03/16 00:35:21;;;;;;;10.50;8.20;;;;;;;13.42;100.00;99777.25;179463;1255;57716;-82
2024/03/16 00:39:23;;;;;;;14.30;9.60;;;;;;;13.34;100.00;99778.21;178764;1255;45955;-82
2024/03/16 00:43:27;;;;;;;11.70;9.60;;;;;;;13.29;100.00;99776.02;179203;1256;44194;-82
2024/03/16 00:47:30;;;;;;;15.00;8.90;;;;;;;13.21;100.00;99780.30;178927;1254;46082;-82
2024/03/16 00:51:33;;;;;;;11.00;8.70;;;;;;;13.07;100.00;99775.92;178801;1255;45836;-82
2024/03/16 00:55:36;;;;;;;10.90;9.00;;;;;;;12.81;100.00;99775.30;178928;1255;58020;-81
2024/03/16 00:59:39;;;;;;;15.20;13.50;;;;;;;12.53;100.00;99777.30;179773;1254;44109;-81
2024/03/16 01:03:41;;;;;;;18.20;13.60;;;;;;;12.31;100.00;99770.20;178712;1256;46019;-82
2024/03/16 01:07:45;;;;;;;17.00;10.40;;;;;;;12.13;100.00;99766.23;179894;1254;45937;-82
2024/03/16 01:11:47;;;;;;;12.50;9.80;;;;;;;11.95;100.00;99762.92;178997;1256;46092;-81
2024/03/16 01:15:51;;;;;;;11.70;7.80;;;;;;;11.74;100.00;99757.52;178996;1254;60174;-82
2024/03/16 01:19:55;;;;;;;14.30;10.50;;;;;;;11.55;100.00;99761.75;178580;1257;46018;-82
2024/03/16 01:23:59;;;;;;;10.50;8.40;;;;;;;11.39;100.00;99759.35;179186;1256;46095;-81
2024/03/16 01:28:02;;;;;;;11.20;9.70;;;;;;;11.30;100.00;99752.38;179569;1256;46058;-81
2024/03/16 01:32:08;;;;;;;16.60;11.60;;;;;;;11.33;100.00;99749.44;178883;1257;46086;-81
2024/03/16 01:36:11;;;;;;;14.00;10.90;;;;;;;11.35;100.00;99749.02;179621;1254;60800;-81
2024/03/16 01:40:15;;;;;;;14.90;11.80;;;;;;;11.35;100.00;99749.63;179973;1254;45636;-81
2024/03/16 01:44:17;;;;;;;15.10;13.50;;;;;;;11.30;100.00;99751.66;179110;1255;44593;-81
2024/03/16 01:48:20;;;;;;;19.50;12.30;;;;;;;11.25;100.00;99752.28;178722;1255;46119;-81
2024/03/16 01:52:23;;;;;;;16.60;13.00;;;;;;;11.21;100.00;99756.70;178706;1256;46096;-81
2024/03/16 01:56:26;;;;;;;16.60;10.80;;;;;;;11.10;100.00;99755.05;178494;1254;60132;-81
2024/03/16 02:00:34;;;;;;;24.40;11.80;;;;;;;10.98;100.00;99755.11;179802;1255;45994;-81
2024/03/16 02:04:37;;;;;;;17.50;11.70;;;;;;;10.95;100.00;99761.77;179172;1256;45970;-81
2024/03/16 02:08:40;;;;;;;16.60;14.00;;;;;;;10.94;100.00;99762.41;179028;1254;45935;-81
2024/03/16 02:12:43;;;;;;;13.40;11.50;;;;;;;10.97;100.00;99768.22;179095;1256;46125;-81
2024/03/16 02:16:46;;;;;;;16.40;11.80;;;;;;;10.98;100.00;99769.80;178898;1254;58601;-81
2024/03/16 02:20:49;;;;;;;14.50;10.70;;;;;;;11.03;100.00;99768.30;179124;1255;44150;-81
2024/03/16 02:24:52;;;;;;;13.00;9.00;;;;;;;11.14;100.00;99769.77;178448;1256;46014;-81
2024/03/16 02:28:56;;;;;;;14.50;9.10;;;;;;;11.25;100.00;99772.85;178623;1256;44198;-81
2024/03/16 02:32:58;;;;;;;15.50;9.00;;;;;;;11.34;100.00;99774.91;178420;1254;44474;-81
2024/03/16 02:37:03;;;;;;;10.20;9.10;;;;;;;11.42;100.00;99777.04;178325;1256;58008;-83
2024/03/16 02:41:07;;;;;;;10.50;6.60;;;;;;;11.43;100.00;99775.15;178508;1255;46029;-81
2024/03/16 02:45:10;;;;;;;8.10;7.00;;;;;;;11.41;100.00;99777.63;179070;1256;46010;-81
2024/03/16 02:49:15;;;;;;;9.20;6.20;;;;;;;11.41;100.00;99781.55;178923;1256;44769;-81
2024/03/16 02:53:18;;;;;;;10.20;8.00;;;;;;;11.39;100.00;99780.14;178453;1255;46131;-81
2024/03/16 02:57:22;;;;;;;9.60;7.10;;;;;;;11.38;100.00;99780.42;179211;1255;59667;-81
2024/03/16 03:01:25;;;;;;;9.50;7.00;;;;;;;11.35;100.00;99777.60;178280;1259;46161;-82
2024/03/16 03:05:28;;;;;;;8.40;7.00;;;;;;;11.36;100.00;99778.11;178768;1257;46751;-82
2024/03/16 03:09:33;;;;;;;12.00;8.30;;;;;;;11.34;100.00;99778.84;179595;1255;45938;-82
2024/03/16 03:13:36;;;;;;;12.00;7.80;;;;;;;11.30;100.00;99780.58;178971;1255;44022;-81
2024/03/16 03:17:39;;;;;;;7.90;7.10;;;;;;;11.24;100.00;99782.52;179356;1256;57915;-81
2024/03/16 03:21:42;;;;;;;8.90;7.90;;;;;;;11.21;100.00;99781.61;177936;1256;46125;-82
2024/03/16 03:25:49;;;;;;;9.20;8.30;;;;;;;11.17;100.00;99784.60;178795;1256;44080;-81
2024/03/16 03:29:51;;;;;;;10.10;8.20;;;;;;;11.18;100.00;99786.30;180110;1257;46000;-82
2024/03/16 03:33:54;;;;;;;11.00;8.00;;;;;;;11.17;100.00;99784.73;179365;1254;45973;-82
2024/03/16 03:37:57;;;;;;;9.60;8.50;;;;;;;11.12;100.00;99789.86;179769;1255;57730;-82
2024/03/16 03:42:00;;;;;;;10.80;9.60;;;;;;;11.08;100.00;99783.64;179617;1255;46286;-82
2024/03/16 03:46:04;;;;;;;10.00;7.40;;;;;;;11.04;100.00;99780.88;179732;1256;45988;-82
2024/03/16 03:50:11;;;;;;;10.40;8.00;;;;;;;10.98;100.00;99783.48;179247;1256;46308;-82
2024/03/16 03:54:14;;;;;;;10.40;8.50;;;;;;;10.97;100.00;99788.02;180076;1256;44141;-82
2024/03/16 03:58:18;;;;;;;9.60;8.20;;;;;;;10.97;100.00;99791.87;179246;1256;58797;-82
2024/03/16 04:02:21;;;;;;;8.70;7.00;;;;;;;10.96;100.00;99795.81;180098;1256;44200;-82
2024/03/16 04:06:25;;;;;;;13.20;7.80;;;;;;;10.83;100.00;99793.86;178743;1257;46167;-81
2024/03/16 04:10:28;;;;;;;10.20;8.20;;;;;;;10.72;100.00;99790.25;178006;1259;46269;-82
2024/03/16 04:14:31;;;;;;;10.10;9.00;;;;;;;10.67;100.00;99790.55;179235;1256;46124;-82
2024/03/16 04:18:34;;;;;;;9.00;8.10;;;;;;;10.63;100.00;99798.03;178543;1256;58326;-81
2024/03/16 04:22:37;;;;;;;15.10;8.00;;;;;;;10.59;100.00;99799.08;178238;1260;43970;-81
2024/03/16 04:26:40;;;;;;;10.60;9.40;;;;;;;10.50;100.00;99800.25;177854;1256;46110;-82
2024/03/16 04:30:43;;;;;;;11.10;10.00;;;;;;;10.42;100.00;99804.95;178431;1256;45996;-82
2024/03/16 04:34:46;;;;;;;9.90;8.90;;;;;;;10.36;100.00;99804.74;177777;1256;46023;-81
2024/03/16 04:38:49;;;;;;;12.10;10.60;;;;;;;10.28;100.00;99810.64;179479;1257;58298;-82
2024/03/16 04:42:51;;;;;;;12.10;10.20;;;;;;;10.22;100.00;99810.08;179316;1256;45957;-82
2024/03/16 04:46:54;;;;;;;11.80;9.40;;;;;;;10.16;100.00;99814.29;179264;1256;46027;-81
2024/03/16 04:50:57;;;;;;;14.60;10.30;;;;;;;10.11;100.00;99816.31;179796;1256;46295;-81
2024/03/16 04:55:00;;;;;;;10.60;8.90;;;;;;;10.06;100.00;99819.60;179536;1256;46588;-82
2024/03/16 04:59:03;;;;;;;12.40;11.10;;;;;;;10.03;100.00;99817.24;178432;1256;58369;-82
2024/03/16 05:03:06;;;;;;;14.40;10.50;;;;;;;9.98;100.00;99823.11;178610;1256;46243;-81
2024/03/16 05:07:09;;;;;;;10.30;9.10;;;;;;;9.96;100.00;99825.29;178413;1256;46082;-82
2024/03/16 05:11:12;;;;;;;10.30;8.60;;;;;;;9.95;100.00;99829.79;177902;1256;46118;-82
2024/03/16 05:15:15;;;;;;;11.10;9.00;;;;;;;9.93;100.00;99832.97;178121;1256;46059;-81
2024/03/16 05:19:18;;;;;;;12.40;9.60;;;;;;;9.90;100.00;99832.31;179040;1256;59661;-82
2024/03/16 05:23:21;;;;;;;11.10;10.00;;;;;;;9.91;100.00;99830.98;178258;1256;46347;-82
2024/03/16 05:27:24;;;;;;;11.20;9.90;;;;;;;9.95;100.00;99836.16;179454;1256;46084;-81
2024/03/16 05:31:27;;;;;;;12.40;10.50;;;;;;;10.02;100.00;99840.73;178779;1256;46198;-82
2024/03/16 05:35:30;;;;;;;12.10;9.70;;;;;;;10.11;100.00;99843.81;179696;1256;45936;-82
2024/03/16 05:39:33;;;;;;;12.80;9.90;;;;;;;10.21;100.00;99846.71;178300;1256;59428;-80
2024/03/16 05:43:38;;;;;;;12.10;10.50;;;;;;;10.30;100.00;99854.23;179218;1256;45999;-81
2024/03/16 05:47:41;;;;;;;17.20;8.40;;;;;;;10.41;100.00;99856.95;179612;1256;46021;-81
2024/03/16 05:51:44;;;;;;;12.20;9.90;;;;;;;10.53;100.00;99858.64;179852;1256;45268;-81
2024/03/16 05:55:47;;;;;;;11.60;9.60;;;;;;;10.64;100.00;99863.18;179004;1256;46107;-81
2024/03/16 05:59:50;;;;;;;13.40;10.00;;;;;;;10.73;100.00;99864.34;179438;1256;58835;-81
2024/03/16 06:03:53;;;;;;;11.90;8.70;;;;;;;10.87;100.00;99867.55;179016;1256;46062;-81
2024/03/16 06:07:55;;;;;;;10.70;8.60;;;;;;;11.01;100.00;99870.71;178892;1256;46015;-81
2024/03/16 06:11:58;;;;;;;19.10;9.00;;;;;;;11.17;100.00;99869.45;179974;1256;44179;-81
2024/03/16 06:16:02;;;;;;;10.50;9.10;;;;;;;11.29;100.00;99872.98;179216;1256;45984;-81
2024/03/16 06:20:06;;;;;;;10.30;8.50;;;;;;;11.37;100.00;99875.81;178500;1257;58325;-81
2024/03/16 06:24:09;;;;;;;10.40;8.70;;;;;;;11.45;100.00;99883.95;178452;1256;46180;-81
2024/03/16 06:28:16;;;;;;;11.10;9.70;;;;;;;11.57;100.00;99882.84;178057;1256;46103;-82
2024/03/16 06:32:20;;;;;;;11.00;9.50;;;;;;;11.75;100.00;99885.08;177700;1257;45988;-81
2024/03/16 06:36:23;;;;;;;11.70;8.70;;;;;;;12.02;100.00;99884.05;178733;1256;44704;-81
2024/03/16 06:40:26;;;;;;;11.90;9.10;;;;;;;12.27;100.00;99890.65;179067;1256;59897;-81
2024/03/16 06:44:30;;;;;;;9.90;8.90;;;;;;;12.50;100.00;99893.43;178192;1256;46115;-81
2024/03/16 06:48:33;;;;;;;9.70;8.70;;;;;;;12.73;100.00;99896.86;178302;1260;46134;-81
2024/03/16 06:52:35;;;;;;;8.20;6.70;;;;;;;12.91;100.00;99902.11;178181;1256;46068;-81
2024/03/16 06:56:39;;;;;;;8.70;7.60;;;;;;;12.99;100.00;99903.27;178212;1256;46058;-81
2024/03/16 07:00:42;;;;;;;6.70;4.70;;;;;;;13.13;100.00;99902.85;179354;1256;58023;-81
2024/03/16 07:04:44;;;;;;;6.20;4.80;;;;;;;13.30;100.00;99908.98;177922;1257;45960;-81
2024/03/16 07:08:47;;;;;;;4.70;4.20;;;;;;;13.40;100.00;99913.65;179597;1256;46076;-81
2024/03/16 07:12:50;;;;;;;3.90;3.50;;;;;;;13.54;100.00;99908.55;178268;1256;46147;-81
2024/03/16 07:16:54;;;;;;;3.30;2.60;;;;;;;13.60;100.00;99915.21;179837;1256;46020;-81
2024/03/16 07:20:57;;;;;;;4.60;3.60;;;;;;;13.60;100.00;99921.75;179128;1256;58142;-81
2024/03/16 07:25:00;;;;;;;6.00;4.30;;;;;;;13.64;100.00;99927.06;180306;1256;46058;-82
2024/03/16 07:29:03;;;;;;;4.90;3.50;;;;;;;13.77;100.00;99925.89;179432;1256;46077;-83
2024/03/16 07:33:07;;;;;;;5.40;4.20;;;;;;;13.96;100.00;99925.11;179554;1256;45946;-83
2024/03/16 07:37:10;;;;;;;7.40;6.00;;;;;;;14.06;100.00;99929.98;179985;1256;44310;-83
2024/03/16 07:41:13;;;;;;;7.20;6.30;;;;;;;14.13;100.00;99928.67;178403;1256;59212;-82
2024/03/16 07:45:16;;;;;;;6.50;5.90;;;;;;;14.22;100.00;99927.27;178603;1256;46050;-82
2024/03/16 07:49:20;;;;;;;4.90;4.50;;;;;;;14.28;100.00;99922.84;178248;1256;45991;-82
2024/03/16 07:53:24;;;;;;;5.40;4.80;;;;;;;14.34;100.00;99923.14;178434;1259;44462;-82
2024/03/16 07:57:29;;;;;;;8.80;5.50;;;;;;;14.46;100.00;99927.30;178615;1256;44358;-82
2024/03/16 08:01:32;;;;;;;2.80;2.40;;;;;;;14.57;100.00;99929.14;178872;1256;60736;-82
2024/03/16 08:05:36;;;;;;;4.30;2.60;;;;;;;14.73;100.00;99934.47;178340;1256;44660;-82
2024/03/16 08:09:39;;;;;;;5.80;2.70;;;;;;;14.85;99.48;99937.40;178840;1256;44219;-82
2024/03/16 08:13:42;;;;;;;4.00;2.10;;;;;;;15.01;99.00;99938.89;178560;1257;44601;-82
2024/03/16 08:17:45;;;;;;;11.10;2.80;;;;;;;15.22;97.39;99942.55;178983;1256;44098;-82
2024/03/16 08:21:48;;;;;;;2.20;1.90;;;;;;;15.39;97.21;99938.99;179471;1260;58352;-82
2024/03/16 08:25:52;;;;;;;6.40;3.40;;;;;;;15.54;94.48;99932.86;179006;1256;46137;-82
2024/03/16 08:29:55;;;;;;;3.30;2.40;;;;;;;15.68;94.78;99932.16;178504;1256;44556;-83
2024/03/16 08:33:58;;;;;;;3.30;2.00;;;;;;;16.03;94.75;99934.82;178678;1257;46162;-81
2024/03/16 08:38:01;;;;;;;4.60;1.60;;;;;;;16.25;91.00;99930.34;178662;1256;46011;-82
2024/03/16 08:42:04;;;;;;;4.40;1.70;;;;;;;16.21;86.43;99928.05;179257;1255;58046;-82
2024/03/16 08:46:07;;;;;;;4.20;2.30;;;;;;;16.10;86.59;99925.58;179147;1255;46000;-82
2024/03/16 08:50:11;;;;;;;4.10;1.60;;;;;;;16.01;87.49;99927.10;178801;1259;45931;-82
2024/03/16 08:54:14;;;;;;;3.10;1.90;;;;;;;15.97;88.94;99926.18;179433;1256;46113;-82
2024/03/16 08:58:17;;;;;;;2.30;2.10;;;;;;;15.98;88.78;99926.59;180013;1256;46157;-82
2024/03/16 09:02:21;;;;;;;2.70;1.90;;;;;;;15.93;88.62;99930.34;179401;1255;59403;-82
2024/03/16 09:06:24;;;;;;;6.30;2.30;;;;;;;15.87;90.41;99931.13;178674;1256;46150;-82
2024/03/16 09:10:27;;;;;;;2.20;2.00;;;;;;;15.86;90.33;99927.84;179481;1256;46153;-82
2024/03/16 09:14:35;;;;;;;2.80;2.00;;;;;;;15.94;89.03;99926.98;179258;1258;46392;-82
2024/03/16 09:18:39;;;;;;;2.90;1.50;;;;;;;15.87;87.81;99926.34;180162;1255;44097;-83
2024/03/16 09:22:43;;;;;;;3.30;1.60;;;;;;;15.81;86.70;99926.02;179312;1256;58056;-82
2024/03/16 09:26:46;;;;;;;3.10;1.70;;;;;;;15.90;87.98;99926.04;179583;1256;46038;-82
2024/03/16 09:30:49;;;;;;;3.50;1.50;;;;;;;15.89;88.47;99930.80;179171;1256;44471;-80
2024/03/16 09:34:57;;;;;;;3.70;1.60;;;;;;;15.88;88.47;99932.70;180129;1256;44280;-81
2024/03/16 09:39:00;;;;;;;3.60;1.90;;;;;;;15.98;88.25;99932.63;179163;1256;46102;-81
2024/03/16 09:43:09;;;;;;;2.20;1.60;;;;;;;16.16;88.90;99932.14;179410;1256;59389;-81
2024/03/16 09:47:16;;;;;;;5.60;2.50;;;;;;;16.35;90.57;99932.52;180401;1257;46035;-81
2024/03/16 09:51:20;;;;;;;2.50;2.10;;;;;;;16.53;88.15;99929.77;178798;1256;45107;-81
2024/03/16 09:55:25;;;;;;;3.60;1.50;;;;;;;16.69;85.86;99935.45;178490;1256;44682;-81
2024/03/16 09:59:28;;;;;;;2.40;1.90;;;;;;;16.85;85.32;99932.46;178128;1259;45227;-81
2024/03/16 10:03:34;;;;;;;2.10;1.40;;;;;;;16.98;83.27;99926.70;179533;1257;59558;-82
2024/03/16 10:07:40;;;;;;;2.00;1.00;;;;;;;17.01;81.19;99925.79;179840;1257;44731;-82
2024/03/16 10:11:43;;;;;;;2.80;1.70;;;;;;;17.00;81.94;99924.86;178183;1256;46456;-81
2024/03/16 10:15:47;;;;;;;3.40;1.40;;;;;;;17.03;81.89;99927.44;179306;1259;46243;-81
2024/03/16 10:19:49;;;;;;;4.50;1.30;;;;;;;16.99;83.72;99931.98;179583;1257;44318;-81
2024/03/16 10:23:53;;;;;;;3.30;1.80;;;;;;;16.76;80.52;99936.84;179076;1256;58074;-81
2024/03/16 10:27:56;;;;;;;6.80;2.40;;;;;;;16.47;83.48;99930.95;179248;1255;45984;-82
2024/03/16 10:32:00;;;;;;;6.90;1.70;;;;;;;16.50;87.00;99929.43;178826;1255;46157;-82
2024/03/16 10:36:04;;;;;;;3.60;1.10;;;;;;;16.65;85.22;99922.59;179002;1255;46110;-82
2024/03/16 10:40:16;;;;;;;3.00;1.30;;;;;;;16.64;82.44;99921.42;178700;1256;45925;-82
2024/03/16 10:44:19;;;;;;;3.20;1.40;;;;;;;16.41;82.01;99922.31;178820;1259;59580;-82
2024/03/16 10:48:23;;;;;;;4.30;1.30;;;;;;;16.34;84.71;99920.11;179692;1257;44171;-82
2024/03/16 10:52:27;;;;;;;2.70;1.10;;;;;;;16.53;85.31;99916.70;179532;1257;46039;-82
2024/03/16 10:56:32;;;;;;;1.80;1.10;;;;;;;16.87;82.62;99909.36;179024;1259;46253;-82
2024/03/16 11:00:35;;;;;;;1.70;0.80;;;;;;;17.22;79.56;99902.98;179120;1257;44335;-82
2024/03/16 11:04:50;;;;;;;4.10;1.30;;;;;;;17.43;74.99;99910.86;179187;1259;58721;-81
2024/03/16 11:08:53;;;;;;;3.30;1.50;;;;;;;17.63;76.49;99907.04;179289;1256;45993;-81
2024/03/16 11:13:29;;;;;;;2.90;0.70;;;;;;;17.68;76.08;99909.52;178977;1258;44775;-82
2024/03/16 11:17:32;;;;;;;4.10;1.50;;;;;;;17.43;78.37;99912.45;178319;1255;46198;-82
2024/03/16 11:21:37;;;;;;;2.90;1.50;;;;;;;17.11;79.76;99912.67;179352;1256;196405;-81
2024/03/16 11:25:40;;;;;;;5.50;1.50;;;;;;;16.89;80.33;99917.30;179595;1256;59640;-82
2024/03/16 11:30:18;;;;;;;3.20;1.20;;;;;;;16.71;80.71;99914.17;178591;1256;46004;-82
2024/03/16 11:34:36;;;;;;;2.40;1.10;;;;;;;16.62;82.99;99915.52;179223;1256;44827;-81
2024/03/16 11:38:38;;;;;;;4.10;1.70;;;;;;;16.74;84.92;99912.70;178769;1258;45955;-82
2024/03/16 11:42:42;;;;;;;9.20;2.50;;;;;;;17.10;80.50;99912.10;179247;1258;46007;-82
2024/03/16 11:46:47;;;;;;;4.20;1.70;;;;;;;17.24;77.73;99910.54;179455;1256;60249;-82
2024/03/16 11:50:50;;;;;;;5.10;1.50;;;;;;;17.20;77.58;99915.43;178835;1256;46003;-81
2024/03/16 11:54:52;;;;;;;5.90;1.80;;;;;;;16.89;79.58;99914.63;178834;1257;46151;-81
2024/03/16 11:58:56;;;;;;;4.20;2.00;;;;;;;15.76;86.89;99935.51;179258;1260;44377;-81
2024/03/16 12:03:06;;;;;;;4.10;1.30;;;;;;;14.90;94.31;99935.75;178943;1257;44842;-82
2024/03/16 12:07:09;;;;;;;3.10;1.50;;;;;;;14.44;99.11;99937.27;178524;1259;60064;-81
2024/03/16 12:11:12;;;;;;;3.80;2.40;;;;;;;14.34;99.28;99938.19;178556;1257;46029;-82
2024/03/16 12:15:22;;;;;;;2.00;1.60;;;;;;;14.64;98.76;99927.90;179436;1260;46093;-81
2024/03/16 12:19:25;;;;;;;4.10;1.80;;;;;;;14.97;98.70;99935.20;179628;1256;46018;-82
2024/03/16 12:23:28;;;;;;;3.90;3.00;;;;;;;15.26;98.69;99930.67;178448;1259;45448;-82
2024/03/16 12:27:31;;;;;;;3.90;2.20;;;;;;;15.55;98.79;99930.27;180127;1257;58776;-81
2024/03/16 12:31:38;;;;;;;5.80;3.50;;;;;;;15.79;99.27;99926.50;179349;1256;46021;-81
2024/03/16 12:35:41;;;;;;;2.80;2.50;;;;;;;15.98;94.91;99926.25;179032;1257;45870;-81
2024/03/16 12:39:44;;;;;;;4.50;2.90;;;;;;;15.97;92.68;99921.98;179097;1260;46099;-81
2024/03/16 12:43:47;;;;;;;3.80;2.90;;;;;;;16.11;95.19;99914.41;177878;1260;46020;-82
2024/03/16 12:47:50;;;;;;;2.90;2.40;;;;;;;16.21;94.83;99910.84;179153;1260;57904;-81
2024/03/16 12:51:52;;;;;;;19.60;4.20;;;;;;;16.06;92.19;99909.39;177961;1259;46321;-81
2024/03/16 12:55:55;;;;;;;4.20;2.80;;;;;;;16.11;91.22;99906.52;178340;1257;46072;-81
2024/03/16 12:59:59;;;;;;;2.40;1.50;;;;;;;16.09;88.44;99903.16;178394;1258;46119;-81
2024/03/16 13:04:02;;;;;;;2.30;2.10;;;;;;;16.11;90.06;99905.48;178277;1260;46013;-82
2024/03/16 13:08:05;;;;;;;2.60;1.00;;;;;;;16.31;88.42;99906.48;179044;1257;58070;-82
2024/03/16 13:12:11;;;;;;;1.50;0.70;;;;;;;16.47;85.00;99904.00;178445;1255;46050;-80
2024/03/16 13:16:15;;;;;;;2.50;1.50;;;;;;;16.41;80.76;99905.34;178742;1257;46115;-80
2024/03/16 13:20:18;;;;;;;4.40;1.40;;;;;;;16.36;81.85;99901.30;178054;1254;46061;-80
2024/03/16 13:24:22;;;;;;;6.30;1.80;;;;;;;16.54;83.56;99902.84;179569;1255;46119;-81
2024/03/16 13:28:25;;;;;;;2.00;1.40;;;;;;;16.56;80.66;99897.96;178599;1258;58386;-81
2024/03/16 13:32:28;;;;;;;2.20;1.50;;;;;;;16.18;81.11;99889.64;177663;1257;46115;-81
2024/03/16 13:36:31;;;;;;;4.50;1.80;;;;;;;16.08;84.34;99891.85;178668;1257;46187;-81
2024/03/16 13:40:34;;;;;;;2.80;1.50;;;;;;;15.94;83.43;99893.55;178089;1256;45989;-80
2024/03/16 13:44:38;;;;;;;2.60;1.40;;;;;;;15.83;82.15;99903.46;178623;1257;45998;-81
2024/03/16 13:48:41;;;;;;;2.00;0.90;;;;;;;15.66;81.43;99905.89;178764;1256;58237;-80
2024/03/16 13:52:44;;;;;;;1.70;1.10;;;;;;;15.57;81.87;99919.48;178481;1257;46044;-81
2024/03/16 13:56:47;;;;;;;1.80;0.80;;;;;;;15.50;84.39;99922.58;179167;1257;46204;-81
2024/03/16 14:00:51;;;;;;;1.10;0.80;;;;;;;15.45;85.12;99922.05;178401;1255;46026;-80
2024/03/16 14:04:54;;;;;;;1.30;1.10;;;;;;;15.50;87.65;99923.52;178751;1257;45979;-81
2024/03/16 14:08:57;;;;;;;2.00;1.30;;;;;;;15.56;87.33;99925.08;179005;1256;58333;-81
2024/03/16 14:13:00;;;;;;;2.90;1.40;;;;;;;15.54;84.97;99925.04;177938;1257;46014;-81
2024/03/16 14:17:03;;;;;;;5.00;1.70;;;;;;;15.53;89.11;99929.09;178454;1256;45970;-80
2024/03/16 14:21:06;;;;;;;6.10;2.90;;;;;;;15.39;88.47;99921.07;178044;1257;46208;-81
2024/03/16 14:25:09;;;;;;;1.20;0.80;;;;;;;15.37;87.95;99930.11;177877;1256;45879;-81
2024/03/16 14:29:12;;;;;;;0.90;0.20;;;;;;;15.18;84.21;99932.45;177498;1257;59650;-81
2024/03/16 14:33:20;;;;;;;2.00;1.10;;;;;;;14.98;84.65;99930.18;179182;1260;44694;-81
2024/03/16 14:37:23;;;;;;;1.60;1.30;;;;;;;14.85;87.19;99929.73;178292;1256;46458;-81
2024/03/16 14:41:25;;;;;;;1.30;0.60;;;;;;;14.83;87.95;99925.21;178734;1257;44367;-82
2024/03/16 14:45:28;;;;;;;1.20;0.60;;;;;;;14.80;89.06;99931.50;178738;1256;44734;-81
2024/03/16 14:49:36;;;;;;;1.90;1.20;;;;;;;14.71;90.57;99925.92;178222;1258;59268;-80
2024/03/16 14:53:39;;;;;;;1.70;1.20;;;;;;;14.65;91.33;99927.23;178747;1256;44684;-80
2024/03/16 14:57:42;;;;;;;1.50;0.90;;;;;;;14.66;92.88;99931.25;178759;1257;46016;-80
2024/03/16 15:01:45;;;;;;;2.20;1.10;;;;;;;14.74;93.05;99931.87;179219;1256;43946;-81
2024/03/16 15:05:49;;;;;;;1.20;1.10;;;;;;;14.97;92.30;99934.89;177862;1260;46093;-81
2024/03/16 15:09:52;;;;;;;1.50;1.10;;;;;;;15.20;90.05;99931.86;178514;1257;59357;-81
2024/03/16 15:13:55;;;;;;;2.30;1.40;;;;;;;15.27;89.06;99937.92;178784;1257;46670;-81
2024/03/16 15:17:58;;;;;;;3.20;1.20;;;;;;;15.13;90.00;99945.10;178681;1257;46196;-81
2024/03/16 15:22:01;;;;;;;2.70;1.10;;;;;;;15.00;88.69;99942.93;178312;1256;46243;-82
2024/03/16 15:26:06;;;;;;;1.90;1.40;;;;;;;14.82;90.13;99947.20;178546;1255;45965;-82
2024/03/16 15:30:12;;;;;;;1.50;1.00;;;;;;;14.65;92.11;99951.55;178256;1260;56933;-81
2024/03/16 15:34:15;;;;;;;;;;;;;;;14.52;93.02;99953.46;178878;1256;46573;-81
2024/03/16 15:38:18;;;;;;;5.20;1.70;;;;;;;14.34;92.65;99954.00;177946;1256;45899;-82
2024/03/16 15:42:21;;;;;;;9.10;3.30;;;;;;;14.22;94.94;99953.07;179633;1256;45972;-82
2024/03/16 15:46:24;;;;;;;3.00;2.30;;;;;;;14.16;96.14;99950.45;179520;1257;46042;-82
2024/03/16 15:50:27;;;;;;;3.00;1.10;;;;;;;14.21;97.72;99946.11;178608;1257;57708;-82
2024/03/16 15:54:30;;;;;;;2.30;2.10;;;;;;;14.15;97.74;99946.70;178328;1256;44338;-81
2024/03/16 15:58:33;;;;;;;2.80;2.20;;;;;;;14.11;98.52;99954.77;179212;1257;46042;-81
2024/03/16 16:02:36;;;;;;;4.40;2.70;;;;;;;14.06;99.43;99957.92;178601;1256;45948;-82
2024/03/16 16:06:38;;;;;;;2.80;2.60;;;;;;;14.07;100.00;99956.79;179069;1257;46047;-81
2024/03/16 16:10:44;;;;;;;1.80;1.70;;;;;;;14.11;100.00;99961.48;178237;1257;58044;-80
2024/03/16 16:14:47;;;;;;;10.60;3.20;;;;;;;14.12;100.00;99971.85;178723;1256;46157;-81
2024/03/16 16:18:50;;;;;;;5.10;2.80;;;;;;;14.10;100.00;99978.02;178604;1256;46132;-82
2024/03/16 16:22:53;;;;;;;3.20;2.90;;;;;;;14.08;100.00;99988.55;178964;1256;43885;-81
2024/03/16 16:26:56;;;;;;;2.30;2.00;;;;;;;14.04;100.00;99990.23;179497;1256;46005;-81
2024/03/16 16:31:05;;;;;;;5.30;2.40;;;;;;;13.98;100.00;99996.88;179225;1257;60532;-81
2024/03/16 16:35:08;;;;;;;4.10;2.40;;;;;;;13.90;99.96;100011.63;178519;1256;44743;-81
2024/03/16 16:39:12;;;;;;;7.60;1.80;;;;;;;13.79;99.96;100025.98;179539;1256;45941;-82
2024/03/16 16:43:15;;;;;;;4.50;1.90;;;;;;;13.53;97.56;100028.79;179559;1255;46071;-82
2024/03/16 16:47:19;;;;;;;4.20;3.10;;;;;;;13.15;99.68;100055.56;179495;1256;45990;-82
2024/03/16 16:51:24;;;;;;;3.90;2.80;;;;;;;12.76;100.00;100068.88;178968;1256;57923;-82
2024/03/16 16:55:27;;;;;;;6.10;2.50;;;;;;;12.39;100.00;100101.93;180198;1255;46103;-82
2024/03/16 16:59:30;;;;;;;3.30;1.50;;;;;;;12.00;100.00;100111.73;180926;1256;44202;-83
2024/03/16 17:03:34;;;;;;;2.80;2.40;;;;;;;11.64;100.00;100125.02;181182;1256;44222;-82
2024/03/16 17:07:38;;;;;;;1.50;1.20;;;;;;;11.35;100.00;100132.71;179868;1255;44000;-83
2024/03/16 17:11:40;;;;;;;6.00;5.00;;;;;;;11.10;100.00;100143.77;178838;1256;58842;-83
2024/03/16 17:15:43;;;;;;;10.00;3.20;;;;;;;10.86;100.00;100152.46;179425;1256;44163;-83
2024/03/16 17:19:46;;;;;;;5.90;2.70;;;;;;;10.75;100.00;100157.50;178881;1256;46089;-82
2024/03/16 17:23:52;;;;;;;5.40;3.20;;;;;;;10.61;100.00;100171.23;178139;1257;46141;-82
2024/03/16 17:27:55;;;;;;;4.10;2.20;;;;;;;10.52;100.00;100170.05;178438;1255;46020;-82
2024/03/16 17:31:57;;;;;;;4.90;2.60;;;;;;;10.51;100.00;100177.96;179164;1256;58372;-82
2024/03/16 17:36:00;;;;;;;5.10;2.30;;;;;;;10.48;100.00;100187.23;178044;1256;45937;-82
2024/03/16 17:40:04;;;;;;;5.90;3.20;;;;;;;10.44;100.00;100190.23;178295;1255;45841;-82
2024/03/16 17:44:07;;;;;;;4.80;3.80;;;;;;;10.50;100.00;100194.11;178895;1256;45982;-81
2024/03/16 17:48:10;;;;;;;6.70;5.10;;;;;;;10.57;100.00;100200.88;178799;1257;46039;-82
2024/03/16 17:52:14;;;;;;;8.60;6.90;;;;;;;10.59;100.00;100205.46;178685;1257;57436;-82
2024/03/16 17:56:17;;;;;;;7.90;5.60;;;;;;;10.59;100.00;100216.80;178353;1259;46246;-82
2024/03/16 18:00:21;;;;;;;4.90;3.70;;;;;;;10.52;100.00;100229.23;179350;1256;46110;-82
2024/03/16 18:04:23;;;;;;;4.40;2.10;;;;;;;10.43;100.00;100246.45;178246;1255;46105;-82
2024/03/16 18:08:26;;;;;;;5.20;2.10;;;;;;;10.24;100.00;100258.80;178148;1255;46009;-81
2024/03/16 18:12:29;;;;;;;3.40;2.40;;;;;;;10.09;100.00;100260.34;178261;1257;59565;-80
2024/03/16 18:16:32;;;;;;;3.60;2.40;;;;;;;10.05;100.00;100263.19;178490;1256;46036;-82
2024/03/16 18:20:46;;;;;;;2.90;2.00;;;;;;;9.98;100.00;100256.96;179030;1256;44459;-82
2024/03/16 18:24:50;;;;;;;4.80;3.30;;;;;;;9.96;100.00;100264.72;179129;1256;46176;-82
2024/03/16 18:28:53;;;;;;;4.40;3.50;;;;;;;9.91;100.00;100268.33;179386;1256;44335;-82
2024/03/16 18:32:56;;;;;;;5.90;3.30;;;;;;;9.86;100.00;100281.77;178406;1256;58287;-82
2024/03/16 18:36:59;;;;;;;6.90;4.30;;;;;;;9.81;100.00;100287.30;178104;1255;46208;-82
2024/03/16 18:41:02;;;;;;;10.70;7.60;;;;;;;9.76;100.00;100292.13;178570;1256;45999;-82